Time;durP1;ratioP1;P1;durP2;ratioP2;P2;SDS_P1;SDS_P2;PMS_P1;PMS_P2;Temp;Humidity;BMP_temperature;BMP_pressure;BME280_temperature;BME280_humidity;BME280_pressure;Samples;Min_cycle;Max_cycle;Signal;HPM_P1;HPM_P2
2021/10/27 00:02:07;;;;;;;37.08;15.20;;;3.70;99.90;;;;;;4978426;28;19913;-75
2021/10/27 00:07:01;;;;;;;34.05;15.48;;;3.70;99.90;;;;;;4841257;28;19925;-77
2021/10/27 00:09:27;;;;;;;;;;;3.70;99.90;;;;;;5032631;28;20034;-76
2021/10/27 00:11:52;;;;;;;29.13;15.25;;;3.60;99.90;;;;;;5032335;28;19971;-77
2021/10/27 00:14:18;;;;;;;;;;;3.50;99.90;;;;;;5032605;28;20040;-76
2021/10/27 00:20:09;;;;;;;27.02;14.07;;;3.50;99.90;;;;;;5035117;28;20044;-77
2021/10/27 00:22:36;;;;;;;25.95;13.35;;;3.50;99.90;;;;;;5033947;28;20076;-77
2021/10/27 00:25:02;;;;;;;23.65;13.25;;;3.50;99.90;;;;;;5016938;28;20033;-77
2021/10/27 00:27:28;;;;;;;24.23;11.57;;;3.50;99.90;;;;;;5034844;28;20033;-78
2021/10/27 00:29:54;;;;;;;;;;;3.60;99.90;;;;;;5034109;28;20025;-77
2021/10/27 00:35:41;;;;;;;33.65;16.77;;;3.50;99.90;;;;;;5030889;28;20036;-77
2021/10/27 00:38:07;;;;;;;;;;;3.50;99.90;;;;;;5028275;28;20033;-77
2021/10/27 00:40:33;;;;;;;34.53;13.60;;;3.50;99.90;;;;;;5029371;28;19905;-76
2021/10/27 00:42:59;;;;;;;28.63;12.55;;;3.40;99.90;;;;;;5030200;28;20075;-77
2021/10/27 00:45:24;;;;;;;;;;;3.50;99.90;;;;;;5029948;28;20148;-77
2021/10/27 00:51:12;;;;;;;20.73;10.82;;;3.50;99.90;;;;;;5031812;28;20113;-75
2021/10/27 00:53:39;;;;;;;;;;;3.50;99.90;;;;;;5030921;28;20087;-75
2021/10/27 00:56:05;;;;;;;;;;;3.50;99.90;;;;;;5031618;28;20364;-76
2021/10/27 00:58:32;;;;;;;16.27;9.15;;;3.50;99.90;;;;;;5031619;28;19959;-75
2021/10/27 01:00:58;;;;;;;30.38;15.80;;;3.50;99.90;;;;;;5029776;28;20033;-75
2021/10/27 01:06:26;;;;;;;35.17;16.40;;;3.40;99.90;;;;;;5030782;28;20292;-74
2021/10/27 01:08:54;;;;;;;33.45;15.45;;;3.50;99.90;;;;;;5031944;28;20050;-76
2021/10/27 01:11:20;;;;;;;;;;;3.50;99.90;;;;;;5036805;28;20519;-76
2021/10/27 01:13:47;;;;;;;33.95;16.10;;;3.50;99.90;;;;;;5018773;28;19928;-75
2021/10/27 01:20:25;;;;;;;43.28;19.88;;;3.50;99.90;;;;;;5034517;28;20036;-75
2021/10/27 01:22:51;;;;;;;27.58;14.15;;;3.50;99.90;;;;;;5035333;28;20033;-75
2021/10/27 01:25:16;;;;;;;;;;;3.50;99.90;;;;;;5034465;28;20102;-75
2021/10/27 01:27:47;;;;;;;22.13;8.48;;;3.50;99.90;;;;;;5035021;28;20361;-76
2021/10/27 01:30:15;;;;;;;14.65;8.52;;;3.50;99.90;;;;;;5034468;28;20022;-75
2021/10/27 01:36:04;;;;;;;23.40;10.70;;;3.50;99.90;;;;;;5036484;28;20044;-74
2021/10/27 01:38:31;;;;;;;19.45;11.02;;;3.40;99.90;;;;;;5035486;28;21109;-75
2021/10/27 01:40:57;;;;;;;23.50;14.07;;;3.40;99.90;;;;;;5035893;28;20415;-76
2021/10/27 01:43:22;;;;;;;;;;;3.30;99.90;;;;;;5035065;28;20453;-75
2021/10/27 01:45:48;;;;;;;28.95;14.20;;;3.30;99.90;;;;;;5018773;28;19920;-76
2021/10/27 01:51:17;;;;;;;28.13;13.85;;;3.20;99.90;;;;;;5036818;28;19920;-74
2021/10/27 01:53:43;;;;;;;;;;;3.20;99.90;;;;;;5036093;28;20037;-75
2021/10/27 01:56:08;;;;;;;19.33;10.10;;;3.10;99.90;;;;;;5036710;28;19909;-75
2021/10/27 01:58:34;;;;;;;;;;;3.10;99.90;;;;;;5041965;28;20489;-75
2021/10/27 02:00:59;;;;;;;17.38;8.90;;;3.10;99.90;;;;;;5034716;28;20287;-75
2021/10/27 02:06:28;;;;;;;22.25;9.25;;;3.20;99.90;;;;;;5030990;28;20062;-75
2021/10/27 02:08:54;;;;;;;;;;;3.20;99.90;;;;;;5035612;28;20068;-75
2021/10/27 02:11:21;;;;;;;15.68;9.02;;;3.30;99.90;;;;;;5035561;28;19909;-78
2021/10/27 02:13:47;;;;;;;14.85;8.18;;;3.30;99.90;;;;;;5017599;28;20041;-74
2021/10/27 02:22:38;;;;;;;17.67;8.40;;;3.30;99.90;;;;;;5033944;28;20041;-74
2021/10/27 02:25:04;;;;;;;;;;;3.30;99.90;;;;;;5034420;28;20029;-76
2021/10/27 02:27:29;;;;;;;18.73;8.70;;;3.20;99.90;;;;;;5018187;28;20243;-76
2021/10/27 02:29:55;;;;;;;;;;;3.20;99.90;;;;;;5025071;28;20039;-77
2021/10/27 02:32:20;;;;;;;16.85;9.07;;;3.10;99.90;;;;;;5035861;28;20104;-77
2021/10/27 02:37:49;;;;;;;17.38;8.13;;;3.20;99.90;;;;;;5036289;28;20373;-76
2021/10/27 02:40:16;;;;;;;;;;;3.20;99.90;;;;;;5035772;28;20053;-76
2021/10/27 02:42:43;;;;;;;17.57;9.20;;;3.20;99.90;;;;;;5033902;28;20067;-75
2021/10/27 02:45:11;;;;;;;11.40;6.70;;;3.20;99.90;;;;;;5014924;28;20271;-77
2021/10/27 02:47:42;;;;;;;14.75;7.35;;;3.20;99.90;;;;;;5013143;28;20056;-75
2021/10/27 02:53:30;;;;;;;10.02;5.93;;;3.20;99.90;;;;;;5033831;28;20095;-77
2021/10/27 02:55:56;;;;;;;;;;;3.20;99.90;;;;;;5033142;28;20029;-76
2021/10/27 02:58:22;;;;;;;17.05;7.93;;;3.20;99.90;;;;;;5031433;28;19952;-77
2021/10/27 03:00:47;;;;;;;13.90;7.90;;;3.10;99.90;;;;;;5015440;28;20386;-77
2021/10/27 03:03:14;;;;;;;15.13;7.95;;;3.10;99.90;;;;;;5016948;28;20061;-77
2021/10/27 03:09:09;;;;;;;11.35;7.40;;;3.20;99.90;;;;;;5028193;28;20865;-77
2021/10/27 03:11:35;;;;;;;14.30;7.28;;;3.30;99.90;;;;;;5012717;28;20037;-77
2021/10/27 03:14:01;;;;;;;;;;;3.30;99.90;;;;;;5029757;28;20080;-77
2021/10/27 03:16:27;;;;;;;15.02;7.97;;;3.20;99.90;;;;;;5030675;28;19909;-78
2021/10/27 03:21:55;;;;;;;15.63;8.20;;;3.20;99.90;;;;;;5030815;28;20474;-77
2021/10/27 03:24:21;;;;;;;;;;;3.20;99.90;;;;;;5031286;28;20033;-78
2021/10/27 03:26:47;;;;;;;20.30;9.05;;;3.10;99.90;;;;;;5013400;28;19915;-77
2021/10/27 03:29:15;;;;;;;19.90;10.68;;;3.10;99.90;;;;;;5013658;28;20021;-77
2021/10/27 03:31:41;;;;;;;28.42;11.77;;;3.00;99.90;;;;;;5030099;28;20493;-76
2021/10/27 03:37:13;;;;;;;18.73;9.68;;;3.00;99.90;;;;;;5031691;28;19998;-77
2021/10/27 03:39:39;;;;;;;27.30;11.35;;;3.00;99.90;;;;;;5032385;28;20029;-77
2021/10/27 03:42:05;;;;;;;22.02;11.27;;;3.10;99.90;;;;;;5032369;28;20524;-77
2021/10/27 03:44:30;;;;;;;;;;;3.00;99.90;;;;;;5031093;28;20022;-77
2021/10/27 03:46:57;;;;;;;23.70;11.48;;;3.00;99.90;;;;;;5031454;28;20263;-76
2021/10/27 03:52:45;;;;;;;27.10;11.27;;;3.10;99.90;;;;;;5032643;28;20045;-77
2021/10/27 03:55:12;;;;;;;30.60;16.42;;;3.10;99.90;;;;;;5031631;28;20026;-77
2021/10/27 03:57:39;;;;;;;53.03;25.95;;;3.10;99.90;;;;;;5032082;28;20029;-77
2021/10/27 04:00:07;;;;;;;56.30;28.52;;;3.00;99.90;;;;;;5033274;28;20505;-77
2021/10/27 04:02:36;;;;;;;51.10;24.52;;;3.10;99.90;;;;;;5033722;28;20052;-76
2021/10/27 04:12:07;;;;;;;30.50;16.05;;;2.90;99.90;;;;;;5034628;28;20064;-77
2021/10/27 04:14:32;;;;;;;33.80;16.75;;;3.00;99.90;;;;;;5016643;28;20045;-77
2021/10/27 04:16:58;;;;;;;;;;;2.90;99.90;;;;;;5033910;28;20024;-76
2021/10/27 04:19:23;;;;;;;36.35;16.80;;;2.90;99.90;;;;;;5032968;28;19928;-76
2021/10/27 04:24:52;;;;;;;33.15;13.98;;;2.90;99.90;;;;;;5037211;28;19912;-76
2021/10/27 04:27:18;;;;;;;;;;;2.80;99.90;;;;;;5038982;28;20034;-77
2021/10/27 04:29:44;;;;;;;26.08;13.32;;;2.80;99.90;;;;;;5030992;28;19909;-76
2021/10/27 04:32:11;;;;;;;35.80;17.98;;;2.80;99.90;;;;;;5030204;28;20022;-77
2021/10/27 04:34:37;;;;;;;30.52;15.43;;;2.80;99.90;;;;;;5030512;28;20029;-77
2021/10/27 04:40:08;;;;;;;32.95;15.20;;;2.70;99.90;;;;;;5038845;28;20208;-77
2021/10/27 04:42:34;;;;;;;32.00;15.32;;;2.70;99.90;;;;;;5031509;28;20037;-76
2021/10/27 04:45:00;;;;;;;39.50;18.13;;;2.60;99.90;;;;;;5028527;28;20056;-77
2021/10/27 04:47:25;;;;;;;;;;;2.70;99.90;;;;;;5033252;28;20056;-77
2021/10/27 04:49:53;;;;;;;41.75;17.95;;;2.70;99.90;;;;;;5034166;28;19909;-77
2021/10/27 04:55:41;;;;;;;42.03;19.85;;;2.70;99.90;;;;;;5034924;28;20032;-77
2021/10/27 04:58:06;;;;;;;;;;;2.80;99.90;;;;;;5033178;28;20029;-77
2021/10/27 05:00:32;;;;;;;37.17;16.88;;;2.70;99.90;;;;;;5015950;28;19915;-77
2021/10/27 05:02:58;;;;;;;36.58;15.25;;;2.70;99.90;;;;;;5032412;28;20040;-77
2021/10/27 05:05:24;;;;;;;;;;;2.70;99.90;;;;;;5034141;28;20033;-77
2021/10/27 05:11:11;;;;;;;51.65;19.90;;;2.80;99.90;;;;;;5031444;28;20050;-77
2021/10/27 05:13:38;;;;;;;;;;;2.90;99.90;;;;;;5018546;28;20049;-77
2021/10/27 05:16:04;;;;;;;43.83;16.83;;;2.80;99.90;;;;;;5036001;28;19905;-77
2021/10/27 05:18:30;;;;;;;;;;;2.80;99.90;;;;;;5035518;28;20033;-76
2021/10/27 05:24:58;;;;;;;37.42;16.52;;;2.80;99.90;;;;;;5037295;28;20074;-77
2021/10/27 05:27:24;;;;;;;43.38;18.25;;;2.70;99.90;;;;;;5036244;28;20780;-77
2021/10/27 05:29:49;;;;;;;;;;;2.80;99.90;;;;;;5034603;28;20025;-77
2021/10/27 05:32:15;;;;;;;33.00;16.50;;;2.80;99.90;;;;;;5034212;28;19916;-77
2021/10/27 05:34:42;;;;;;;;;;;2.80;99.90;;;;;;5036347;28;20037;-76
2021/10/27 05:40:30;;;;;;;49.28;23.13;;;2.80;99.90;;;;;;5038668;28;20032;-77
2021/10/27 05:42:56;;;;;;;;;;;2.90;99.90;;;;;;5037005;28;20033;-77
2021/10/27 05:45:25;;;;;;;44.95;23.08;;;2.90;99.90;;;;;;5035690;28;19909;-77
2021/10/27 05:47:55;;;;;;;49.83;22.40;;;2.90;99.90;;;;;;5034418;28;20040;-76
2021/10/27 05:50:27;;;;;;;50.42;22.85;;;3.00;99.90;;;;;;5033320;28;20025;-76
2021/10/27 05:56:18;;;;;;;41.03;20.77;;;3.10;99.90;;;;;;5034469;28;20036;-76
2021/10/27 05:58:44;;;;;;;41.45;19.83;;;3.20;99.90;;;;;;5014340;28;20040;-76
2021/10/27 06:01:10;;;;;;;;;;;3.30;99.90;;;;;;5031497;28;20060;-76
2021/10/27 06:03:36;;;;;;;51.03;27.13;;;3.40;99.90;;;;;;5017981;28;20432;-77
2021/10/27 06:06:02;;;;;;;62.22;34.97;;;3.50;99.90;;;;;;5033960;28;20112;-76
2021/10/27 06:11:32;;;;;;;62.60;33.33;;;3.70;99.90;;;;;;5026371;28;19924;-76
2021/10/27 06:14:00;;;;;;;68.95;35.45;;;3.90;99.90;;;;;;5030479;28;20045;-75
2021/10/27 06:16:26;;;;;;;68.13;37.08;;;4.00;99.90;;;;;;5043010;28;20060;-79
2021/10/27 06:18:53;;;;;;;;;;;4.20;99.90;;;;;;5033325;28;20523;-76
2021/10/27 06:24:43;;;;;;;51.30;24.42;;;5.50;99.90;;;;;;5034773;28;20527;-76
2021/10/27 06:27:10;;;;;;;44.70;24.05;;;6.40;99.90;;;;;;5031617;28;20044;-76
2021/10/27 06:29:49;;;;;;;43.10;22.90;;;7.10;99.90;;;;;;5030954;28;20033;-76
2021/10/27 06:32:26;;;;;;;45.38;22.92;;;7.60;99.90;;;;;;5016178;28;20025;-76
2021/10/27 06:34:56;;;;;;;41.90;22.63;;;8.10;99.90;;;;;;5029492;28;20056;-77
2021/10/27 06:46:31;;;;;;;32.40;18.38;;;8.50;99.90;;;;;;5031565;28;20116;-76
2021/10/27 06:48:56;;;;;;;38.13;18.70;;;8.50;99.90;;;;;;5015137;28;20040;-75
2021/10/27 06:57:48;;;;;;;16.45;9.30;;;8.40;99.90;;;;;;5031431;28;20045;-77
2021/10/27 07:00:18;;;;;;;;;;;8.40;99.90;;;;;;5034636;28;20021;-77
2021/10/27 07:16:43;;;;;;;18.58;10.30;;;9.10;99.90;;;;;;5037691;28;20083;-77
2021/10/27 07:19:10;;;;;;;;;;;9.40;99.70;;;;;;5040865;28;20034;-77
2021/10/27 07:21:39;;;;;;;20.02;11.15;;;9.50;99.10;;;;;;5015456;28;19916;-77
2021/10/27 07:27:29;;;;;;;17.25;12.10;;;9.70;98.40;;;;;;5034154;28;20084;-77
2021/10/27 07:29:54;;;;;;;17.42;11.07;;;9.70;97.80;;;;;;5034124;28;20025;-77
2021/10/27 07:32:20;;;;;;;;;;;9.70;97.70;;;;;;5034218;28;20203;-77
2021/10/27 07:34:52;;;;;;;13.73;9.27;;;9.70;97.50;;;;;;5034586;28;19917;-77
2021/10/27 07:46:46;;;;;;;21.60;9.48;;;10.00;96.90;;;;;;5033438;28;20104;-76
2021/10/27 07:49:15;;;;;;;14.55;9.55;;;10.10;96.90;;;;;;5033057;28;20798;-76
2021/10/27 07:51:40;;;;;;;;;;;10.20;96.80;;;;;;5034731;28;20057;-77
2021/10/27 07:54:07;;;;;;;19.50;12.10;;;10.30;96.20;;;;;;5034001;28;19924;-77
2021/10/27 07:56:32;;;;;;;;;;;10.40;96.50;;;;;;5032296;28;20112;-77
2021/10/27 08:02:20;;;;;;;67.78;21.52;;;10.70;95.80;;;;;;5033144;28;20099;-77
2021/10/27 08:04:46;;;;;;;;;;;10.90;95.50;;;;;;5032381;28;20029;-76
2021/10/27 08:07:12;;;;;;;37.58;18.42;;;11.10;94.10;;;;;;5029989;28;19909;-77
2021/10/27 08:09:38;;;;;;;44.03;20.65;;;11.30;93.50;;;;;;5030111;28;20056;-77
2021/10/27 08:12:04;;;;;;;;;;;11.60;93.00;;;;;;5032488;28;20025;-76
2021/10/27 08:17:59;;;;;;;27.85;15.50;;;11.90;91.40;;;;;;5020383;28;20052;-78
2021/10/27 08:20:27;;;;;;;31.65;17.02;;;12.30;91.00;;;;;;5027135;28;20034;-79
2021/10/27 08:23:03;;;;;;;30.73;14.65;;;12.40;90.10;;;;;;5026522;28;20013;-76
2021/10/27 08:25:32;;;;;;;25.23;15.45;;;12.80;88.20;;;;;;5025251;28;20033;-78
2021/10/27 08:31:43;;;;;;;33.65;13.38;;;14.10;80.40;;;;;;5026511;28;20045;-78
2021/10/27 08:34:14;;;;;;;29.13;12.50;;;14.90;74.70;;;;;;5024363;28;20033;-78
2021/10/27 08:36:40;;;;;;;22.13;12.98;;;15.50;72.20;;;;;;5024258;28;20520;-82
2021/10/27 08:39:08;;;;;;;22.45;13.38;;;16.10;69.90;;;;;;5024495;28;20104;-81
2021/10/27 08:41:35;;;;;;;23.05;13.05;;;16.60;65.70;;;;;;5023577;28;20084;-75
2021/10/27 08:47:25;;;;;;;21.42;12.30;;;17.40;59.70;;;;;;5026006;28;20460;-76
2021/10/27 08:49:55;;;;;;;19.00;11.13;;;17.80;58.80;;;;;;5025263;28;20033;-75
2021/10/27 08:52:21;;;;;;;20.10;11.43;;;18.30;56.40;;;;;;5007676;28;20034;-78
2021/10/27 08:54:46;;;;;;;19.80;12.25;;;18.50;55.50;;;;;;5023957;28;20037;-78
2021/10/27 08:57:13;;;;;;;20.50;11.95;;;18.90;53.30;;;;;;5025665;28;20025;-77
2021/10/27 09:06:18;;;;;;;18.40;11.18;;;19.70;49.50;;;;;;5025315;28;20447;-77
2021/10/27 09:09:07;;;;;;;19.23;11.20;;;19.60;48.20;;;;;;5022612;28;20521;-76
2021/10/27 09:39:57;;;;;;;21.35;10.18;;;18.70;47.00;;;;;;5005313;28;20030;-76
2021/10/27 10:04:03;;;;;;;14.30;8.73;;;15.90;53.20;;;;;;5015668;28;20037;-79
2021/10/27 10:06:06;;;;;;;24.38;11.82;;;15.30;55.10;;;;;;5012720;28;20065;-77
2021/10/27 10:08:32;;;;;;;22.02;10.10;;;15.00;55.30;;;;;;5027578;28;20029;-78
2021/10/27 10:10:57;;;;;;;;;;;14.90;56.50;;;;;;5027649;28;20088;-78
2021/10/27 10:13:24;;;;;;;12.50;8.77;;;14.80;57.00;;;;;;5029935;28;19913;-75
2021/10/27 10:19:15;;;;;;;15.98;9.43;;;14.60;57.30;;;;;;5020803;28;20061;-76
2021/10/27 10:21:46;;;;;;;18.17;9.35;;;14.50;57.90;;;;;;5029565;28;20025;-76
2021/10/27 10:24:30;;;;;;;16.45;8.57;;;14.40;58.30;;;;;;5012888;28;20026;-76
2021/10/27 10:27:01;;;;;;;15.10;8.75;;;14.30;58.60;;;;;;5012080;28;20028;-77
2021/10/27 10:33:18;;;;;;;16.73;9.38;;;14.20;59.60;;;;;;5032656;28;20036;-76
2021/10/27 10:35:56;;;;;;;13.80;7.72;;;14.20;59.50;;;;;;5030101;28;20125;-76
2021/10/27 11:39:49;;;;;;;23.20;11.20;;;14.20;59.60;;;;;;5030852;28;20028;-77
2021/10/27 11:48:25;;;;;;;;;;;14.30;59.50;;;;;;5032874;28;20045;-76
2021/10/27 11:50:51;;;;;;;12.57;7.32;;;14.30;59.80;;;;;;5029332;28;19909;-76
2021/10/27 11:53:32;;;;;;;17.65;7.20;;;14.30;59.90;;;;;;5030978;28;20033;-76
2021/10/27 12:03:06;;;;;;;14.35;7.25;;;14.50;59.40;;;;;;5031219;28;20075;-76
2021/10/27 12:05:55;;;;;;;13.60;7.13;;;14.60;59.20;;;;;;5048984;28;20110;-78
2021/10/27 12:08:32;;;;;;;13.35;6.65;;;14.50;58.50;;;;;;5049596;28;20037;-76
2021/10/27 12:11:18;;;;;;;;;;;14.60;58.40;;;;;;5050897;28;20013;-76
2021/10/27 12:13:59;;;;;;;11.95;5.80;;;14.60;58.00;;;;;;5032280;28;19920;-76
2021/10/27 12:19:07;;;;;;;13.40;7.07;;;14.70;58.50;;;;;;5050996;28;20033;-76
2021/10/27 12:21:35;;;;;;;11.43;7.00;;;14.70;58.20;;;;;;5032564;28;20021;-76
2021/10/27 12:24:02;;;;;;;11.73;6.50;;;14.60;58.10;;;;;;5033172;28;20063;-77
2021/10/27 12:26:47;;;;;;;18.10;6.90;;;14.70;58.20;;;;;;5036028;28;20057;-77
2021/10/27 12:29:22;;;;;;;11.07;6.60;;;14.80;58.10;;;;;;5035479;28;20090;-80
2021/10/27 12:32:05;;;;;;;14.68;7.10;;;14.80;58.00;;;;;;5038941;28;20096;-77
2021/10/27 12:34:32;;;;;;;13.75;7.03;;;14.90;57.70;;;;;;5033402;28;20047;-76
2021/10/27 12:37:00;;;;;;;12.52;7.05;;;14.90;57.70;;;;;;5050298;28;20021;-77
2021/10/27 12:39:46;;;;;;;13.40;6.93;;;15.00;57.60;;;;;;5031245;28;20048;-76
2021/10/27 12:42:14;;;;;;;18.13;7.28;;;15.10;57.60;;;;;;5049157;28;20032;-77
2021/10/27 12:44:51;;;;;;;11.65;6.65;;;15.20;56.70;;;;;;5031696;28;20567;-77
2021/10/27 12:47:22;;;;;;;14.65;6.88;;;15.30;56.90;;;;;;5049037;28;20106;-76
2021/10/27 12:50:03;;;;;;;15.18;6.18;;;15.20;56.70;;;;;;5031936;28;20079;-76
2021/10/27 12:52:36;;;;;;;12.80;6.28;;;15.30;56.40;;;;;;5049197;28;20029;-76
2021/10/27 12:55:14;;;;;;;20.98;6.65;;;15.30;56.90;;;;;;5030947;28;20039;-77
2021/10/27 12:57:53;;;;;;;24.52;7.30;;;15.30;56.60;;;;;;5048963;28;20375;-77
2021/10/27 13:03:42;;;;;;;13.10;7.25;;;15.40;55.90;;;;;;5050315;28;20043;-77
2021/10/27 13:08:59;;;;;;;12.27;6.53;;;15.30;56.00;;;;;;5053663;28;20079;-77
2021/10/27 13:22:30;;;;;;;11.93;6.30;;;15.20;56.00;;;;;;5055489;28;20555;-77
2021/10/27 13:33:17;;;;;;;12.23;6.32;;;15.00;56.70;;;;;;5059007;28;20223;-74
2021/10/27 13:35:43;;;;;;;17.48;7.10;;;15.00;56.30;;;;;;5035904;28;20025;-76
2021/10/27 13:38:10;;;;;;;;;;;15.00;56.80;;;;;;5054193;28;20036;-76
2021/10/27 13:40:45;;;;;;;12.93;7.00;;;14.90;56.90;;;;;;5034934;28;19908;-76
2021/10/27 13:43:27;;;;;;;13.20;7.57;;;14.90;56.90;;;;;;5053540;28;20951;-76
2021/10/27 13:46:50;;;;;;;13.13;5.35;;;14.80;57.10;;;;;;5053595;28;20077;-76
2021/10/27 13:49:30;;;;;;;13.25;8.50;;;14.80;57.60;;;;;;5047646;28;20037;-76
2021/10/27 14:07:59;;;;;;;13.80;6.60;;;14.50;58.10;;;;;;5053945;28;20044;-76
2021/10/27 14:10:35;;;;;;;19.67;8.30;;;14.40;57.90;;;;;;5052038;28;20028;-75
2021/10/27 14:40:32;;;;;;;16.42;8.27;;;13.80;60.40;;;;;;5051994;28;20089;-78
2021/10/27 14:51:21;;;;;;;;;;;13.50;61.30;;;;;;5054179;28;20033;-77
2021/10/27 15:15:34;;;;;;;23.10;12.48;;;13.20;62.20;;;;;;5035835;28;20033;-77
2021/10/27 15:21:28;;;;;;;16.20;7.53;;;12.20;66.10;;;;;;5040658;28;20166;-77
2021/10/27 15:24:17;;;;;;;11.02;6.30;;;12.00;66.50;;;;;;5038213;28;20017;-78
2021/10/27 15:29:47;;;;;;;12.45;5.97;;;11.70;67.50;;;;;;5056175;28;20711;-77
2021/10/27 15:32:22;;;;;;;12.68;5.65;;;11.60;68.10;;;;;;5058276;28;20029;-78
2021/10/27 15:34:56;;;;;;;13.82;5.65;;;11.50;68.90;;;;;;5062103;28;20040;-78
2021/10/27 15:40:39;;;;;;;15.27;6.82;;;11.30;70.50;;;;;;5057452;28;20035;-77
2021/10/27 15:51:20;;;;;;;177.75;46.85;;;10.70;74.80;;;;;;5064525;28;20086;-76
2021/10/27 15:53:45;;;;;;;187.18;44.90;;;10.50;75.30;;;;;;5044359;28;20060;-78
2021/10/27 15:56:12;;;;;;;;;;;10.40;75.80;;;;;;5058185;28;20428;-77
2021/10/27 15:58:38;;;;;;;66.28;21.15;;;10.30;76.10;;;;;;5035644;28;19919;-77
2021/10/27 16:01:04;;;;;;;;;;;10.20;76.50;;;;;;5051117;28;20033;-77
2021/10/27 16:03:32;;;;;;;47.03;18.13;;;10.10;76.80;;;;;;5052321;28;19909;-77
2021/10/27 16:05:59;;;;;;;34.75;13.50;;;9.90;77.10;;;;;;5051465;28;20049;-78
2021/10/27 16:08:27;;;;;;;31.00;13.43;;;9.80;77.60;;;;;;5050852;28;20037;-77
2021/10/27 16:10:55;;;;;;;33.45;14.95;;;9.80;78.10;;;;;;5052219;28;20477;-77
2021/10/27 16:13:21;;;;;;;33.83;17.00;;;9.60;78.50;;;;;;5032691;28;20040;-77
2021/10/27 16:15:57;;;;;;;;;;;9.50;79.10;;;;;;5052559;28;20810;-77
2021/10/27 16:18:26;;;;;;;36.85;19.20;;;9.50;80.00;;;;;;5033140;28;20653;-77
2021/10/27 16:20:56;;;;;;;37.90;18.42;;;9.40;80.40;;;;;;5032910;28;20025;-76
2021/10/27 16:23:22;;;;;;;48.03;20.45;;;9.30;81.10;;;;;;5032974;28;20025;-77
2021/10/27 16:25:52;;;;;;;63.85;27.45;;;9.20;82.00;;;;;;5050381;28;20059;-77
2021/10/27 16:28:18;;;;;;;107.70;48.05;;;9.10;82.90;;;;;;5032506;28;20028;-77
2021/10/27 16:30:44;;;;;;;;;;;9.00;83.30;;;;;;5050959;28;20021;-76
2021/10/27 16:33:11;;;;;;;53.08;23.38;;;8.90;84.20;;;;;;5051272;28;19956;-77
2021/10/27 16:35:37;;;;;;;47.70;20.27;;;8.80;84.60;;;;;;5033339;28;20515;-76
2021/10/27 16:38:04;;;;;;;;;;;8.70;85.80;;;;;;5051708;28;20024;-77
2021/10/27 16:40:31;;;;;;;51.30;24.40;;;8.60;86.80;;;;;;5051747;28;20027;-77
2021/10/27 16:42:57;;;;;;;60.67;27.95;;;8.50;87.70;;;;;;5032251;28;20029;-77
2021/10/27 16:45:23;;;;;;;59.90;29.35;;;8.40;89.00;;;;;;5051046;28;20028;-78
2021/10/27 16:47:48;;;;;;;;;;;8.40;90.20;;;;;;5034193;28;20086;-77
2021/10/27 16:50:15;;;;;;;54.22;26.50;;;8.30;90.80;;;;;;5066791;28;19909;-77
2021/10/27 16:52:43;;;;;;;52.25;28.08;;;8.20;91.40;;;;;;5051650;28;20029;-78
2021/10/27 16:55:10;;;;;;;74.47;31.48;;;8.10;91.90;;;;;;5051231;28;20025;-77
2021/10/27 16:57:37;;;;;;;66.72;30.40;;;8.10;92.70;;;;;;5052030;28;20021;-77
2021/10/27 17:00:07;;;;;;;61.90;28.58;;;8.00;93.30;;;;;;5051322;28;20082;-77
2021/10/27 17:02:33;;;;;;;68.35;31.20;;;7.90;93.80;;;;;;5032875;28;20021;-77
2021/10/27 17:04:58;;;;;;;;;;;7.90;94.30;;;;;;5033960;28;20533;-77
2021/10/27 17:07:24;;;;;;;52.97;25.25;;;7.80;94.90;;;;;;5053276;28;19932;-77
2021/10/27 17:09:50;;;;;;;53.42;26.30;;;7.80;95.30;;;;;;5039701;28;20098;-77
2021/10/27 17:12:15;;;;;;;;;;;7.70;95.70;;;;;;5033945;28;20033;-76
2021/10/27 17:14:42;;;;;;;51.20;25.85;;;7.70;96.10;;;;;;5033336;28;19919;-77
2021/10/27 17:17:08;;;;;;;53.83;27.30;;;7.60;96.50;;;;;;5032612;28;20471;-77
2021/10/27 17:19:34;;;;;;;46.85;25.73;;;7.60;97.00;;;;;;5032773;28;20064;-77
2021/10/27 17:22:00;;;;;;;;;;;7.40;97.30;;;;;;5052221;28;20033;-78
2021/10/27 17:24:27;;;;;;;51.63;27.50;;;7.50;97.70;;;;;;5051489;28;19905;-77
2021/10/27 17:26:57;;;;;;;74.63;35.47;;;7.50;97.60;;;;;;5034006;28;20025;-77
2021/10/27 17:29:23;;;;;;;86.03;39.65;;;7.40;98.10;;;;;;5051399;28;20060;-76
2021/10/27 17:31:50;;;;;;;118.60;53.50;;;7.40;98.50;;;;;;5034930;28;20036;-77
2021/10/27 17:34:15;;;;;;;118.40;51.35;;;7.40;98.80;;;;;;5052076;28;20029;-77
2021/10/27 17:36:42;;;;;;;100.72;48.35;;;7.40;99.10;;;;;;5051274;28;20032;-77
2021/10/27 17:39:07;;;;;;;90.07;42.42;;;7.40;99.20;;;;;;5033700;28;20040;-76
2021/10/27 17:41:34;;;;;;;90.43;43.60;;;7.30;99.20;;;;;;5057439;28;20029;-77
2021/10/27 17:44:00;;;;;;;85.78;43.42;;;7.30;99.30;;;;;;5053894;28;20428;-78
2021/10/27 17:46:38;;;;;;;71.35;37.95;;;7.30;99.50;;;;;;5049051;28;20032;-77
2021/10/27 17:49:09;;;;;;;68.57;36.95;;;7.20;99.70;;;;;;5030907;28;20518;-77
2021/10/27 17:51:46;;;;;;;58.10;30.02;;;7.20;99.90;;;;;;5048788;28;20021;-77
2021/10/27 17:59:40;;;;;;;66.18;30.45;;;7.00;99.90;;;;;;5052551;28;20463;-77
2021/10/27 18:02:06;;;;;;;55.55;29.70;;;7.00;99.90;;;;;;5052957;28;20037;-76
2021/10/27 18:04:32;;;;;;;63.03;31.50;;;7.00;99.90;;;;;;5052950;28;20576;-77
2021/10/27 18:07:01;;;;;;;60.60;30.38;;;6.90;99.90;;;;;;5053461;28;20471;-77
2021/10/27 18:09:27;;;;;;;66.25;29.67;;;6.90;99.90;;;;;;5034903;28;20037;-77
2021/10/27 18:11:54;;;;;;;64.70;32.35;;;6.90;99.90;;;;;;5034711;28;20055;-77
2021/10/27 18:14:22;;;;;;;59.83;30.08;;;6.90;99.90;;;;;;5052806;28;20076;-77
2021/10/27 18:17:00;;;;;;;61.78;31.13;;;6.80;99.90;;;;;;5035451;28;20047;-77
2021/10/27 18:22:23;;;;;;;63.17;31.48;;;6.70;99.90;;;;;;5054789;28;20719;-77
2021/10/27 18:27:57;;;;;;;62.55;26.60;;;6.70;99.90;;;;;;5054055;28;20021;-77
2021/10/27 18:38:41;;;;;;;30.25;13.32;;;6.70;99.90;;;;;;5053566;28;20099;-76
2021/10/27 18:44:06;;;;;;;42.47;20.35;;;6.80;99.90;;;;;;5033601;28;20041;-77
2021/10/27 18:46:32;;;;;;;38.17;20.90;;;6.80;99.90;;;;;;5033168;28;20039;-77
2021/10/27 18:49:00;;;;;;;49.45;24.10;;;6.80;99.90;;;;;;5033576;28;20045;-76
2021/10/27 18:51:27;;;;;;;39.80;21.95;;;6.70;99.90;;;;;;5033835;28;20086;-77
2021/10/27 18:59:38;;;;;;;51.47;25.52;;;6.60;99.90;;;;;;5051987;28;20083;-76
2021/10/27 19:02:16;;;;;;;53.50;24.75;;;6.60;99.90;;;;;;5033881;28;20075;-76
2021/10/27 19:15:45;;;;;;;65.95;31.40;;;6.40;99.90;;;;;;5040360;28;20415;-76
2021/10/27 19:18:14;;;;;;;52.47;27.00;;;6.30;99.90;;;;;;5036435;28;20175;-75
2021/10/27 19:20:44;;;;;;;60.58;30.70;;;6.30;99.90;;;;;;5052655;28;20067;-77
2021/10/27 19:23:11;;;;;;;91.53;42.38;;;6.20;99.90;;;;;;5035559;28;20044;-76
2021/10/27 19:25:49;;;;;;;90.68;45.33;;;6.20;99.90;;;;;;5034572;28;20029;-76
2021/10/27 19:28:32;;;;;;;53.10;28.55;;;6.20;99.90;;;;;;5021201;28;20151;-76
2021/10/27 20:19:17;;;;;;;37.78;23.52;;;6.10;99.90;;;;;;5057122;28;19916;-77
2021/10/27 20:49:18;;;;;;;53.67;29.35;;;6.00;99.90;;;;;;5051596;28;20043;-77
2021/10/27 20:54:18;;;;;;;45.13;25.13;;;6.10;99.90;;;;;;5052974;28;20036;-77
2021/10/27 20:56:50;;;;;;;;;;;6.10;99.90;;;;;;5053468;28;20375;-77
2021/10/27 21:12:45;;;;;;;44.30;23.45;;;6.00;99.90;;;;;;5050591;28;20118;-77
2021/10/27 21:15:13;;;;;;;45.53;25.10;;;6.00;99.90;;;;;;5049577;28;20041;-76
2021/10/27 21:17:39;;;;;;;48.63;24.50;;;6.00;99.90;;;;;;5032723;28;20496;-78
2021/10/27 21:20:06;;;;;;;;;;;6.00;99.90;;;;;;5051562;28;20032;-77
2021/10/27 21:22:32;;;;;;;47.47;21.30;;;5.90;99.90;;;;;;5051973;28;19905;-77
2021/10/27 21:24:57;;;;;;;;;;;5.90;99.90;;;;;;5035781;28;20036;-77
2021/10/27 21:27:47;;;;;;;41.17;21.23;;;5.90;99.90;;;;;;5039263;28;19905;-76
2021/10/27 21:30:26;;;;;;;37.00;19.85;;;5.90;99.90;;;;;;5037950;28;20079;-77
2021/10/27 21:43:49;;;;;;;31.48;17.98;;;6.00;99.90;;;;;;5054692;28;20036;-77
2021/10/27 21:46:15;;;;;;;30.73;17.80;;;6.00;99.90;;;;;;5052245;28;20036;-76
2021/10/27 21:48:41;;;;;;;38.13;20.27;;;6.00;99.90;;;;;;5051537;28;20025;-76
2021/10/27 21:51:07;;;;;;;;;;;6.00;99.90;;;;;;5037190;28;20148;-76
2021/10/27 21:53:32;;;;;;;47.33;23.08;;;6.00;99.90;;;;;;5038504;28;19991;-78
2021/10/27 21:56:01;;;;;;;54.42;28.77;;;6.00;99.90;;;;;;5055189;28;20029;-77
2021/10/27 21:58:28;;;;;;;46.33;25.85;;;5.90;99.90;;;;;;5036805;28;20036;-77
2021/10/27 22:00:56;;;;;;;46.75;26.33;;;5.90;99.90;;;;;;5054782;28;20029;-77
2021/10/27 22:03:27;;;;;;;43.30;23.35;;;5.90;99.90;;;;;;5036468;28;20128;-78
2021/10/27 22:05:55;;;;;;;46.78;22.20;;;5.90;99.90;;;;;;5037188;28;20068;-77
2021/10/27 22:08:23;;;;;;;43.63;19.67;;;5.80;99.90;;;;;;5055204;28;20033;-77
2021/10/27 22:10:49;;;;;;;40.72;21.17;;;5.80;99.90;;;;;;5056380;28;20025;-77